• Join FlightAware (Why Join?)
  • Login
  • US Flag 
04:13AM EDT


 

Airport Tracker/Info


-or-


 

Live Flight TrackerFlight Track Log ✈ JBU1329 ✈ 10-May-2013 ✈ KBOS - KBWI

Flight Track Log - Related Links

Times and Time Zones

All times are in EDT time to prevent confusion due to time zone crossing. See the JBU1329 flight status page for this flight to view local times or setup timezone preferences in your user account.

Time Position Orientation Groundspeed Altitude Reporting Facility
EDT Latitude Longitude Course Direction KTS MPH feet Rate Location/Type
09:19AM 42.3500 -71.0167 240° Southwest 179 206 1,100  Level KA90
09:22AM 42.3924 -70.7424 144° Southeast  Level FlightAware Approximate
09:22AM 42.3244 -70.8422 101° East 231 266 6,300  Level Boston Center
09:23AM 42.3020 -70.7171 172° South  Level FlightAware Approximate
09:23AM 42.3150 -70.7528 98° East 241 277 9,500  Level Boston Center
09:24AM 42.2388 -70.8084 228° Southwest  Level FlightAware Approximate
09:24AM 42.2353 -70.7322 169° South 230 265 11,800  Level Boston Center
09:25AM 42.1907 -70.9162 240° Southwest  Level FlightAware Approximate
09:25AM 42.1783 -70.8181 228° Southwest 212 244 14,600  Level Boston Center
09:26AM 42.1592 -70.9444 258° West 248 285 17,600 2,520 Climbing Boston Center
09:27AM 42.1525 -71.0650 266° West 298 343 19,700 2,100 Climbing Boston Center
09:28AM 42.1414 -71.1942 263° West 328 377 21,900 2,100 Climbing Boston Center
09:29AM 42.1219 -71.3261 259° West 350 403 23,900 1,860 Climbing Boston Center
09:30AM 42.0711 -71.4528 242° Southwest 366 421 25,700 1,800 Climbing Boston Center
09:31AM 42.0219 -71.5822 243° Southwest 383 441 27,600 1,680 Climbing Boston Center
09:32AM 41.9731 -71.7197 244° Southwest 395 455 29,100 1,440 Climbing Boston Center
09:33AM 41.9236 -71.8542 244° Southwest 400 460 30,500 1,260 Climbing Boston Center
09:34AM 41.8703 -72.0053 245° Southwest 406 467 31,700 720 Climbing Boston Center
09:35AM 41.8186 -72.1475 244° Southwest 406 467 32,000 120 Climbing Boston Center
09:36AM 41.7667 -72.2869 243° Southwest 411 473 32,000  Level Boston Center
09:37AM 41.7147 -72.4289 244° Southwest 417 480 32,000  Level Boston Center
09:38AM 41.6647 -72.5650 244° Southwest 422 486 32,000  Level Boston Center
09:39AM 41.6122 -72.7039 243° Southwest 422 486 32,000  Level Boston Center
09:40AM 41.5619 -72.8425 244° Southwest 422 486 32,000  Level Boston Center
09:41AM 41.5114 -72.9750 243° Southwest 416 479 32,000  Level Boston Center
09:42AM 41.4628 -73.1106 244° Southwest 410 472 32,000  Level Boston Center
09:44AM 41.3575 -73.3861 243° Southwest 392 451 32,000  Level New York Center
09:45AM 41.3067 -73.5194 243° Southwest 398 458 32,000  Level New York Center
09:46AM 41.2431 -73.6519 237° Southwest 409 471 32,000  Level New York Center
09:47AM 41.1714 -73.7700 231° Southwest 420 483 32,000  Level New York Center
09:48AM 41.1017 -73.8908 233° Southwest 420 483 32,000 -60 Level New York Center
09:49AM 41.0297 -74.0086 231° Southwest 420 483 31,900 -780 Descending New York Center
09:50AM 40.9597 -74.1289 232° Southwest 426 490 30,500 -1,440 Descending New York Center
09:51AM 40.8856 -74.2431 229° Southwest 426 490 29,000 -1,260 Descending New York Center
09:52AM 40.8175 -74.3575 232° Southwest 415 478 28,000 -540 Descending New York Center
09:53AM 40.7497 -74.4664 231° Southwest 405 466 28,000 -300 Level New York Center
09:54AM 40.6814 -74.5803 232° Southwest 405 466 27,500 -900 Descending New York Center
09:55AM 40.6153 -74.6914 232° Southwest 400 460 26,200 -1,260 Descending New York Center
09:56AM 40.5450 -74.7994 229° Southwest 400 460 25,000 -1,200 Descending New York Center
09:57AM 40.4750 -74.8933 226° Southwest 389 448 23,800 -1,200 Descending New York Center
09:58AM 40.4067 -74.9958 229° Southwest 379 436 22,600 -1,260 Descending New York Center
09:59AM 40.3367 -75.0894 226° Southwest 373 429 21,400 -1,200 Descending New York Center
10:00AM 40.2747 -75.1836 229° Southwest 360 414 20,300 -1,140 Descending New York Center
10:01AM 40.2069 -75.2744 226° Southwest 360 414 19,200 -1,140 Descending New York Center
10:02AM 40.1408 -75.3650 226° Southwest 355 409 18,100 -660 Descending New York Center
10:03AM 40.0814 -75.4453 226° Southwest 350 403 18,000 -60 Descending New York Center
10:04AM 40.0108 -75.5408 226° Southwest 345 397 18,000  Level New York Center
10:05AM 39.9533 -75.6208 227° Southwest 340 391 18,000 -660 Level New York Center
10:06AM 39.8908 -75.7219 231° Southwest 333 383 16,700 -1,200 Descending New York Center
10:07AM 39.8453 -75.8108 236° Southwest 333 383 15,600 -1,140 Descending New York Center
10:09AM 39.7333 -76.0333 237° Southwest 296 341 13,000 -1,140 Descending Potomac TRACON
10:10AM 39.6833 -76.1167 232° Southwest 286 329 12,000 -1,080 Descending Potomac TRACON
10:11AM 39.6333 -76.2167 237° Southwest 282 325 10,800 -1,380 Descending Potomac TRACON
10:12AM 39.5833 -76.3000 232° Southwest 272 313 9,200 -1,740 Descending Potomac TRACON
10:13AM 39.5500 -76.3833 243° Southwest 274 315 7,400 -1,740 Descending Potomac TRACON
10:14AM 39.5000 -76.4667 232° Southwest 267 307 5,800 -1,200 Descending Potomac TRACON
10:15AM 39.4500 -76.4833 194° South 278 320 5,000 -720 Descending Potomac TRACON
10:16AM 39.3833 -76.4667 169° South 271 312 4,500 -540 Descending Potomac TRACON
10:17AM 39.3000 -76.4333 163° South 271 312 4,000 -300 Descending Potomac TRACON
10:18AM 39.2333 -76.4167 169° South 271 312 4,000 -480 Level Potomac TRACON
10:19AM 39.1667 -76.4000 169° South 263 303 3,100 -540 Descending Potomac TRACON
10:20AM 39.1000 -76.4667 218° Southwest 245 282 3,000 -60 Descending Potomac TRACON
10:21AM 39.0833 -76.5167 247° West 193 222 3,000 -420 Level Potomac TRACON
10:22AM 39.0833 -76.5833 270° West 157 181 2,200 -780 Descending Potomac TRACON
10:23AM 39.1167 -76.6167 322° Northwest 155 178 1,600 -840 Descending Potomac TRACON
10:24AM 39.1500 -76.6500 322° Northwest 144 166 700 -900 Descending Potomac TRACON
10:26AM 39.1667 -76.6667 270° West  Level FlightAware Approximate